Time;durP1;ratioP1;P1;durP2;ratioP2;P2;SDS_P1;SDS_P2;PMS_P1;PMS_P2;Temp;Humidity;BMP_temperature;BMP_pressure;BME280_temperature;BME280_humidity;BME280_pressure;Samples;Min_cycle;Max_cycle;Signal;HPM_P1;HPM_P2
2023/12/02 00:02:09;;;;;;;27.40;20.30;;;;;;;-3.05;100.00;100878.66;5101087;28;20528;-67
2023/12/02 00:04:34;;;;;;;29.65;21.52;;;;;;;-3.07;100.00;100881.22;5091309;28;20501;-67
2023/12/02 00:07:00;;;;;;;29.02;20.60;;;;;;;-3.10;100.00;100876.00;5100858;28;20391;-67
2023/12/02 00:09:25;;;;;;;27.90;22.17;;;;;;;-3.07;100.00;100872.56;5096373;28;20290;-68
2023/12/02 00:11:50;;;;;;;28.08;20.40;;;;;;;-3.12;100.00;100869.94;5096671;28;20043;-68
2023/12/02 00:14:16;;;;;;;13.50;7.05;;;;;;;-2.98;100.00;100871.72;5084153;28;20398;-67
2023/12/02 00:16:41;;;;;;;32.08;23.02;;;;;;;-3.03;100.00;100872.56;5095734;27;20032;-67
2023/12/02 00:19:06;;;;;;;29.75;20.80;;;;;;;-3.08;100.00;100863.88;5090882;27;20085;-66
2023/12/02 00:21:32;;;;;;;27.67;21.05;;;;;;;-3.13;100.00;100862.13;5090489;28;20489;-67
2023/12/02 00:23:57;;;;;;;27.70;20.25;;;;;;;-3.20;100.00;100863.81;5090951;28;20234;-67
2023/12/02 00:26:22;;;;;;;26.55;19.98;;;;;;;-3.19;100.00;100875.94;5099699;28;20028;-68
2023/12/02 00:28:48;;;;;;;30.77;22.50;;;;;;;-3.21;100.00;100869.00;5093480;28;20080;-67
2023/12/02 00:31:13;;;;;;;27.63;20.70;;;;;;;-3.18;100.00;100879.41;5094358;28;20027;-67
2023/12/02 00:33:38;;;;;;;29.20;21.50;;;;;;;-3.21;100.00;100882.91;5099085;28;20121;-66
2023/12/02 00:36:04;;;;;;;29.15;20.88;;;;;;;-3.18;100.00;100885.50;5097566;28;20226;-68
2023/12/02 00:38:30;;;;;;;30.98;22.73;;;;;;;-3.17;100.00;100881.19;5084396;28;20016;-67
2023/12/02 00:40:55;;;;;;;30.58;21.92;;;;;;;-3.19;100.00;100878.56;5087841;28;20077;-67
2023/12/02 00:43:20;;;;;;;31.27;21.73;;;;;;;-3.18;100.00;100887.22;5091527;28;20031;-67
2023/12/02 00:45:46;;;;;;;27.98;21.10;;;;;;;-3.21;100.00;100882.03;5091751;28;20028;-67
2023/12/02 00:48:11;;;;;;;28.17;21.38;;;;;;;-3.22;100.00;100881.13;5089050;28;20031;-67
2023/12/02 00:50:37;;;;;;;28.35;21.77;;;;;;;-3.24;100.00;100882.88;5097854;28;20404;-67
2023/12/02 00:53:02;;;;;;;26.63;20.13;;;;;;;-3.27;100.00;100881.09;5087675;28;20032;-67
2023/12/02 00:55:27;;;;;;;27.15;21.30;;;;;;;-3.27;100.00;100890.66;5083528;28;20055;-68
2023/12/02 00:57:52;;;;;;;27.98;21.30;;;;;;;-3.29;100.00;100876.78;5091701;28;20077;-67
2023/12/02 01:00:18;;;;;;;26.90;20.08;;;;;;;-3.26;100.00;100884.56;5085457;28;20063;-67
2023/12/02 01:02:43;;;;;;;8.48;5.53;;;;;;;-3.17;100.00;100882.06;5084437;28;20323;-68
2023/12/02 01:05:09;;;;;;;28.77;21.45;;;;;;;-3.25;100.00;100875.94;5083748;28;20036;-67
2023/12/02 01:07:34;;;;;;;27.35;21.08;;;;;;;-3.21;100.00;100879.44;5087004;28;20020;-68
2023/12/02 01:10:00;;;;;;;28.73;21.50;;;;;;;-3.27;100.00;100875.03;5085906;28;20028;-67
2023/12/02 01:12:25;;;;;;;28.00;21.05;;;;;;;-3.27;100.00;100873.31;5084739;28;20128;-68
2023/12/02 01:14:51;;;;;;;26.20;20.52;;;;;;;-3.26;100.00;100876.75;5093813;28;20581;-67
2023/12/02 01:17:17;;;;;;;27.90;21.50;;;;;;;-3.27;100.00;100875.03;5089140;28;20039;-68
2023/12/02 01:19:44;;;;;;;27.15;20.35;;;;;;;-3.27;100.00;100877.63;5092729;28;20156;-67
2023/12/02 01:22:09;;;;;;;27.40;21.13;;;;;;;-3.27;100.00;100881.09;5098812;28;20095;-68
2023/12/02 01:24:35;;;;;;;26.05;20.23;;;;;;;-3.34;100.00;100881.09;5092542;28;20123;-67
2023/12/02 01:27:00;;;;;;;25.42;20.25;;;;;;;-3.36;100.00;100880.19;5092827;28;20110;-68
2023/12/02 01:29:25;;;;;;;26.33;20.40;;;;;;;-3.32;100.00;100885.41;5085416;28;20517;-69
2023/12/02 01:31:51;;;;;;;28.08;21.92;;;;;;;-3.33;100.00;100883.69;5085536;28;20031;-69
2023/12/02 01:34:16;;;;;;;26.60;21.20;;;;;;;-3.40;100.00;100860.22;5083547;28;20028;-68
2023/12/02 01:36:42;;;;;;;26.80;20.75;;;;;;;-3.40;100.00;100878.44;5085521;28;20050;-68
2023/12/02 01:39:07;;;;;;;27.25;20.90;;;;;;;-3.43;100.00;100881.88;5091092;28;20024;-68
2023/12/02 01:41:32;;;;;;;27.17;20.92;;;;;;;-3.49;100.00;100891.38;5090438;28;20172;-68
2023/12/02 01:43:58;;;;;;;26.10;19.63;;;;;;;-3.52;100.00;100884.41;5080352;28;20161;-68
2023/12/02 01:46:23;;;;;;;28.52;20.85;;;;;;;-3.56;100.00;100893.91;5086751;28;20177;-68
2023/12/02 01:48:49;;;;;;;27.10;20.48;;;;;;;-3.64;100.00;100887.78;5082149;28;20027;-68
2023/12/02 01:51:16;;;;;;;26.88;21.05;;;;;;;-3.62;100.00;100909.50;5090214;28;20453;-68
2023/12/02 01:53:45;;;;;;;26.30;19.98;;;;;;;-3.66;100.00;100902.53;5099659;28;20035;-68
2023/12/02 01:56:11;;;;;;;27.15;20.25;;;;;;;-3.63;100.00;100899.09;5101894;28;20031;-68
2023/12/02 01:58:37;;;;;;;27.92;21.40;;;;;;;-3.59;100.00;100906.06;5091089;28;20117;-69
2023/12/02 02:01:04;;;;;;;29.35;21.40;;;;;;;-3.59;100.00;100904.31;5093422;28;20085;-68
2023/12/02 02:03:29;;;;;;;29.52;21.40;;;;;;;-3.59;100.00;100912.13;5093498;28;20058;-68
2023/12/02 02:05:55;;;;;;;27.70;20.33;;;;;;;-3.55;100.00;100913.03;5098318;28;20020;-68
2023/12/02 02:08:20;;;;;;;26.23;20.83;;;;;;;-3.46;100.00;100920.03;5102346;28;20073;-68
2023/12/02 02:10:45;;;;;;;28.83;20.95;;;;;;;-3.45;100.00;100913.97;5091207;27;20100;-68
2023/12/02 02:13:11;;;;;;;27.60;21.23;;;;;;;-3.44;100.00;100918.31;5091574;28;20073;-68
2023/12/02 02:15:36;;;;;;;27.58;20.55;;;;;;;-3.42;100.00;100907.06;5087904;28;20128;-70
2023/12/02 02:18:02;;;;;;;29.88;21.33;;;;;;;-3.47;100.00;100900.06;5093056;28;20232;-68
2023/12/02 02:20:28;;;;;;;5.88;4.50;;;;;;;-3.32;100.00;100913.19;5096045;27;20042;-68
2023/12/02 02:22:53;;;;;;;10.10;5.55;;;;;;;-3.33;100.00;100911.44;5086753;28;20894;-68
2023/12/02 02:25:18;;;;;;;28.75;21.70;;;;;;;-3.39;100.00;100914.84;5086022;28;20039;-68
2023/12/02 02:27:44;;;;;;;27.65;20.70;;;;;;;-3.42;100.00;100914.84;5090174;28;20055;-68
2023/12/02 02:30:10;;;;;;;27.35;20.70;;;;;;;-3.44;100.00;100915.69;5100947;28;20061;-68
2023/12/02 02:32:35;;;;;;;26.92;20.77;;;;;;;-3.46;100.00;100922.63;5102326;28;20096;-68
2023/12/02 02:35:00;;;;;;;25.73;19.98;;;;;;;-3.54;100.00;100914.78;5087202;27;20032;-68
2023/12/02 02:37:25;;;;;;;26.40;20.30;;;;;;;-3.55;100.00;100913.91;5092785;27;20027;-68
2023/12/02 02:39:51;;;;;;;24.88;19.17;;;;;;;-3.58;100.00;100918.19;5093997;28;20490;-68
2023/12/02 02:42:16;;;;;;;26.10;20.10;;;;;;;-3.61;100.00;100924.25;5087948;28;20028;-68
2023/12/02 02:44:42;;;;;;;28.95;20.88;;;;;;;-3.62;100.00;100925.09;5083905;28;20489;-68
2023/12/02 02:47:07;;;;;;;27.58;19.98;;;;;;;-3.64;100.00;100934.59;5086540;28;20036;-68
2023/12/02 02:49:32;;;;;;;26.63;19.90;;;;;;;-3.64;100.00;100932.00;5090038;27;20024;-68
2023/12/02 02:51:58;;;;;;;27.70;21.15;;;;;;;-3.65;100.00;100938.09;5093381;28;20176;-68
2023/12/02 02:54:23;;;;;;;25.75;20.02;;;;;;;-3.65;100.00;100930.28;5086048;27;20024;-68
2023/12/02 02:56:49;;;;;;;27.45;20.75;;;;;;;-3.59;100.00;100932.94;5097180;28;20535;-68
2023/12/02 02:59:14;;;;;;;28.33;21.63;;;;;;;-3.65;100.00;100937.22;5093615;28;20054;-68
2023/12/02 03:01:43;;;;;;;29.48;21.65;;;;;;;-3.59;100.00;100938.16;5101552;28;20035;-68
2023/12/02 03:04:08;;;;;;;27.15;20.98;;;;;;;-3.54;100.00;100944.25;5100764;28;20020;-68
2023/12/02 03:06:34;;;;;;;28.00;21.60;;;;;;;-3.54;100.00;100949.47;5089184;28;20122;-68
2023/12/02 03:08:59;;;;;;;29.20;20.65;;;;;;;-3.52;100.00;100946.84;5084290;28;20054;-69
2023/12/02 03:11:25;;;;;;;26.52;19.77;;;;;;;-3.52;100.00;100944.25;5093273;28;20073;-68
2023/12/02 03:13:50;;;;;;;27.30;20.67;;;;;;;-3.51;100.00;100944.28;5085628;28;20036;-68
2023/12/02 03:16:15;;;;;;;29.10;21.48;;;;;;;-3.52;100.00;100939.91;5083394;28;20089;-68
2023/12/02 03:18:41;;;;;;;29.83;20.85;;;;;;;-3.55;100.00;100929.50;5090790;28;20036;-68
2023/12/02 03:21:06;;;;;;;29.60;20.33;;;;;;;-3.58;100.00;100931.22;5095174;28;20035;-68
2023/12/02 03:23:31;;;;;;;27.55;21.08;;;;;;;-3.59;100.00;100942.47;5095522;28;20767;-68
2023/12/02 03:25:57;;;;;;;26.90;20.73;;;;;;;-3.60;100.00;100953.72;5088960;28;20439;-68
2023/12/02 03:28:23;;;;;;;26.92;20.77;;;;;;;-3.59;100.00;100953.75;5092660;28;20008;-67
2023/12/02 03:30:49;;;;;;;30.15;22.10;;;;;;;-3.53;100.00;100953.78;5094217;28;20016;-67
2023/12/02 03:33:14;;;;;;;25.80;20.27;;;;;;;-3.54;100.00;100948.59;5092305;28;20426;-67
2023/12/02 03:35:39;;;;;;;28.77;20.85;;;;;;;-3.56;100.00;100948.56;5095448;28;20104;-67
2023/12/02 03:38:05;;;;;;;31.02;23.17;;;;;;;-3.46;100.00;100956.47;5096771;28;20168;-67
2023/12/02 03:40:30;;;;;;;29.50;21.70;;;;;;;-3.48;100.00;100945.16;5085096;28;20100;-67
2023/12/02 03:42:55;;;;;;;30.33;22.08;;;;;;;-3.42;100.00;100953.03;5085575;28;20039;-67
2023/12/02 03:45:21;;;;;;;28.23;20.65;;;;;;;-3.45;100.00;100942.59;5090820;28;20032;-67
2023/12/02 03:47:47;;;;;;;28.98;20.35;;;;;;;-3.43;100.00;100938.25;5084134;28;20349;-68
2023/12/02 03:50:12;;;;;;;26.17;20.52;;;;;;;-3.43;100.00;100940.84;5086364;28;20044;-67
2023/12/02 03:52:37;;;;;;;28.42;22.13;;;;;;;-3.42;100.00;100943.50;5095609;27;20490;-67
2023/12/02 03:55:03;;;;;;;28.88;20.83;;;;;;;-3.47;100.00;100939.09;5096805;28;20035;-67
2023/12/02 03:57:29;;;;;;;27.77;21.27;;;;;;;-3.47;100.00;100939.09;5088387;28;20276;-67
2023/12/02 03:59:54;;;;;;;26.58;20.90;;;;;;;-3.52;100.00;100937.31;5092489;28;20039;-67
2023/12/02 04:02:19;;;;;;;28.90;21.35;;;;;;;-3.54;100.00;100940.78;5094888;28;20023;-67
2023/12/02 04:04:44;;;;;;;29.45;21.30;;;;;;;-3.59;100.00;100958.97;5096792;28;20027;-67
2023/12/02 04:07:10;;;;;;;10.82;6.72;;;;;;;-3.47;100.00;100983.31;5094991;28;20527;-68
2023/12/02 04:09:35;;;;;;;29.60;22.35;;;;;;;-3.52;100.00;100955.53;5095289;28;20028;-67
2023/12/02 04:12:01;;;;;;;28.88;21.73;;;;;;;-3.52;100.00;100952.06;5090736;28;20024;-68
2023/12/02 04:14:26;;;;;;;29.15;21.98;;;;;;;-3.46;100.00;100970.34;5087346;28;20102;-68
2023/12/02 04:16:51;;;;;;;28.27;21.23;;;;;;;-3.51;100.00;100969.44;5095713;28;20193;-67
2023/12/02 04:19:17;;;;;;;31.55;22.17;;;;;;;-3.43;100.00;100970.34;5086919;28;20260;-68
2023/12/02 04:21:44;;;;;;;31.23;21.95;;;;;;;-3.41;100.00;100986.84;5094587;28;20135;-68
2023/12/02 04:24:10;;;;;;;30.38;22.02;;;;;;;-3.42;100.00;100989.47;5086542;28;20023;-69
2023/12/02 04:26:38;;;;;;;13.15;5.78;;;;;;;-3.33;100.00;100989.53;5093948;28;20024;-68
2023/12/02 04:29:03;;;;;;;27.77;21.85;;;;;;;-3.41;100.00;100984.25;5096542;28;20032;-68
2023/12/02 04:31:30;;;;;;;26.80;21.20;;;;;;;-3.48;100.00;100985.06;5089277;28;20031;-68
2023/12/02 04:33:55;;;;;;;29.90;22.05;;;;;;;-3.47;100.00;100985.94;5085349;28;20028;-68
2023/12/02 04:36:20;;;;;;;28.10;21.50;;;;;;;-3.39;100.00;100992.06;5085629;28;20394;-69
2023/12/02 04:38:46;;;;;;;9.25;6.75;;;;;;;-3.27;100.00;101003.44;5082854;28;20032;-68
2023/12/02 04:41:11;;;;;;;28.67;21.48;;;;;;;-3.33;100.00;101000.81;5083588;28;20039;-69
2023/12/02 04:43:36;;;;;;;30.30;23.05;;;;;;;-3.31;100.00;100995.59;5083203;28;20042;-69
2023/12/02 04:46:02;;;;;;;29.05;21.73;;;;;;;-3.35;100.00;100994.69;5089411;28;20115;-68
2023/12/02 04:48:27;;;;;;;27.83;21.08;;;;;;;-3.33;100.00;100989.53;5082873;28;20024;-69
2023/12/02 04:50:52;;;;;;;26.55;21.13;;;;;;;-3.44;100.00;100981.63;5085273;28;20044;-68
2023/12/02 04:53:18;;;;;;;26.90;20.88;;;;;;;-3.42;100.00;100995.53;5082974;28;20254;-69
2023/12/02 04:55:47;;;;;;;29.52;21.70;;;;;;;-3.43;100.00;101000.69;5089925;28;20031;-69
2023/12/02 04:58:12;;;;;;;27.67;21.75;;;;;;;-3.45;100.00;100999.84;5086489;28;20035;-68
2023/12/02 05:00:38;;;;;;;27.13;21.58;;;;;;;-3.45;100.00;100999.84;5091833;28;20028;-68
2023/12/02 05:03:03;;;;;;;28.67;21.27;;;;;;;-3.43;100.00;101005.91;5089756;28;20031;-67
2023/12/02 05:05:29;;;;;;;28.45;21.75;;;;;;;-3.43;100.00;101005.91;5096328;28;20122;-67
2023/12/02 05:07:54;;;;;;;27.40;21.33;;;;;;;-3.41;100.00;101010.28;5087510;28;20023;-69
2023/12/02 05:10:19;;;;;;;27.42;20.98;;;;;;;-3.39;100.00;101016.34;5092573;28;20241;-68
2023/12/02 05:12:45;;;;;;;28.65;21.65;;;;;;;-3.38;100.00;101017.25;5089875;28;20073;-67
2023/12/02 05:15:11;;;;;;;28.70;21.77;;;;;;;-3.41;100.00;101017.22;5099240;28;20040;-68
2023/12/02 05:17:36;;;;;;;27.00;21.50;;;;;;;-3.39;100.00;101015.50;5088659;28;20046;-68
2023/12/02 05:20:02;;;;;;;27.25;21.08;;;;;;;-3.43;100.00;101017.19;5093763;28;20107;-67
2023/12/02 05:22:27;;;;;;;28.05;20.90;;;;;;;-3.36;100.00;101028.53;5083931;28;20042;-68
2023/12/02 05:24:53;;;;;;;29.02;22.13;;;;;;;-3.37;100.00;101024.19;5094456;28;20070;-68
2023/12/02 05:27:18;;;;;;;31.05;23.17;;;;;;;-3.36;100.00;101026.81;5090658;28;20105;-68
2023/12/02 05:29:43;;;;;;;28.38;21.95;;;;;;;-3.37;100.00;101025.06;5088146;28;20088;-68
2023/12/02 05:32:09;;;;;;;28.65;21.58;;;;;;;-3.37;100.00;101022.47;5082685;28;20028;-68
2023/12/02 05:34:34;;;;;;;29.73;22.65;;;;;;;-3.44;100.00;101023.25;5100282;28;20229;-68
2023/12/02 05:37:00;;;;;;;27.75;21.45;;;;;;;-3.42;100.00;101028.50;5089549;28;20435;-67
2023/12/02 05:39:26;;;;;;;29.70;22.08;;;;;;;-3.41;100.00;101019.81;5090462;28;20042;-68
2023/12/02 05:41:51;;;;;;;29.35;22.80;;;;;;;-3.43;100.00;101024.13;5101025;28;20106;-68
2023/12/02 05:44:17;;;;;;;28.92;21.27;;;;;;;-3.38;100.00;101015.53;5089910;28;20058;-68
2023/12/02 05:46:42;;;;;;;30.13;22.35;;;;;;;-3.36;100.00;101031.13;5104308;28;20023;-68
2023/12/02 05:49:08;;;;;;;29.95;22.67;;;;;;;-3.33;100.00;101034.66;5090364;28;20467;-68
2023/12/02 05:51:37;;;;;;;30.75;22.80;;;;;;;-3.33;100.00;101025.97;5092942;28;20040;-68
2023/12/02 05:54:03;;;;;;;30.55;22.45;;;;;;;-3.30;100.00;101034.69;5087766;28;20074;-68
2023/12/02 05:56:28;;;;;;;16.20;7.43;;;;;;;-3.21;100.00;101036.50;5096169;28;20050;-68
2023/12/02 05:58:54;;;;;;;30.60;22.05;;;;;;;-3.23;100.00;101030.38;5103176;28;20066;-68
2023/12/02 06:01:20;;;;;;;29.40;22.70;;;;;;;-3.23;100.00;101045.13;5104579;28;20035;-68
2023/12/02 06:03:46;;;;;;;29.60;22.45;;;;;;;-3.30;100.00;101039.03;5089207;28;20056;-68
2023/12/02 06:06:11;;;;;;;29.65;23.13;;;;;;;-3.36;100.00;101044.16;5098090;28;20101;-68
2023/12/02 06:08:37;;;;;;;28.35;21.77;;;;;;;-3.43;100.00;101050.16;5086540;28;20046;-68
2023/12/02 06:11:02;;;;;;;30.45;22.88;;;;;;;-3.53;100.00;101044.88;5086297;28;20020;-68
2023/12/02 06:13:29;;;;;;;31.08;23.65;;;;;;;-3.61;100.00;101054.31;5086040;28;20434;-68
2023/12/02 06:15:54;;;;;;;30.52;22.58;;;;;;;-3.70;100.00;101041.22;5085915;28;20024;-68
2023/12/02 06:18:20;;;;;;;16.50;7.55;;;;;;;-3.69;100.00;101049.91;5092992;28;20019;-68
2023/12/02 06:20:45;;;;;;;30.77;23.08;;;;;;;-3.90;100.00;101040.13;5086629;28;20280;-67
2023/12/02 06:23:11;;;;;;;29.50;22.67;;;;;;;-3.95;100.00;101053.09;5094767;28;20028;-68
2023/12/02 06:25:36;;;;;;;13.18;7.40;;;;;;;-3.98;100.00;101058.25;5098998;27;20027;-67
2023/12/02 06:28:01;;;;;;;30.90;23.42;;;;;;;-4.06;100.00;101049.47;5099788;28;20024;-68
2023/12/02 06:30:27;;;;;;;29.73;23.25;;;;;;;-4.17;100.00;101054.56;5100789;28;20027;-67
2023/12/02 06:32:52;;;;;;;33.75;24.83;;;;;;;-4.21;100.00;101052.78;5087053;28;20054;-68
2023/12/02 06:35:18;;;;;;;32.40;24.17;;;;;;;-4.22;100.00;101047.53;5095057;28;20199;-68
2023/12/02 06:37:43;;;;;;;35.58;25.55;;;;;;;-4.24;100.00;101062.25;5089568;28;20047;-68
2023/12/02 06:40:09;;;;;;;35.47;25.05;;;;;;;-4.27;100.00;101066.53;5099225;28;20031;-69
2023/12/02 06:42:35;;;;;;;32.50;24.63;;;;;;;-4.29;100.00;101063.06;5091250;28;20425;-68
2023/12/02 06:45:00;;;;;;;32.85;23.15;;;;;;;-4.32;100.00;101073.41;5095395;28;20031;-69
2023/12/02 06:47:26;;;;;;;32.67;24.75;;;;;;;-4.25;100.00;101079.59;5104393;28;20023;-69
2023/12/02 06:49:51;;;;;;;35.90;25.20;;;;;;;-4.14;100.00;101083.19;5098594;28;20297;-69
2023/12/02 06:52:16;;;;;;;34.75;25.25;;;;;;;-4.07;100.00;101092.81;5098958;27;20038;-68
2023/12/02 06:54:42;;;;;;;32.60;23.77;;;;;;;-4.01;100.00;101074.69;5101481;28;20023;-68
2023/12/02 06:57:07;;;;;;;32.28;24.02;;;;;;;-3.90;100.00;101077.41;5096770;28;20039;-69
2023/12/02 06:59:33;;;;;;;33.03;23.98;;;;;;;-3.85;100.00;101086.13;5087362;28;20425;-69
2023/12/02 07:01:59;;;;;;;32.25;23.63;;;;;;;-3.80;100.00;101094.00;5092396;28;20038;-68
2023/12/02 07:04:24;;;;;;;33.30;24.83;;;;;;;-3.76;100.00;101101.88;5093071;28;20254;-69
2023/12/02 07:06:50;;;;;;;31.77;23.98;;;;;;;-3.69;100.00;101102.78;5098591;28;20030;-70
2023/12/02 07:09:18;;;;;;;31.17;23.30;;;;;;;-3.66;100.00;101105.44;5094729;28;20128;-70
2023/12/02 07:11:43;;;;;;;31.58;22.95;;;;;;;-3.71;100.00;101096.72;5103657;28;20031;-69
2023/12/02 07:14:09;;;;;;;31.88;23.45;;;;;;;-3.62;100.00;101111.56;5092936;28;20039;-69
2023/12/02 07:16:34;;;;;;;32.58;24.02;;;;;;;-3.57;100.00;101118.53;5085599;28;20039;-69
2023/12/02 07:19:00;;;;;;;9.15;5.07;;;;;;;-3.52;100.00;101116.84;5090153;27;20034;-68
2023/12/02 07:21:25;;;;;;;29.15;22.33;;;;;;;-3.53;100.00;101129.84;5094340;28;20402;-68
2023/12/02 07:23:51;;;;;;;32.70;24.13;;;;;;;-3.49;100.00;101126.44;5087419;28;20106;-69
2023/12/02 07:26:16;;;;;;;30.00;22.83;;;;;;;-3.52;100.00;101132.47;5099833;27;20462;-68
2023/12/02 07:28:42;;;;;;;30.98;22.45;;;;;;;-3.56;100.00;101124.63;5090162;28;20063;-69
2023/12/02 07:31:17;;;;;;;31.10;22.75;;;;;;;-3.46;100.00;101134.28;5085163;28;20550;-68
2023/12/02 07:33:43;;;;;;;30.88;22.88;;;;;;;-3.43;100.00;101136.03;5087439;28;20047;-69
2023/12/02 07:36:09;;;;;;;31.13;23.77;;;;;;;-3.42;100.00;101132.59;5098290;28;20024;-69
2023/12/02 07:38:35;;;;;;;30.42;23.35;;;;;;;-3.42;100.00;101130.84;5096842;28;20039;-68
2023/12/02 07:41:01;;;;;;;31.58;23.88;;;;;;;-3.41;100.00;101126.53;5093514;28;20024;-69
2023/12/02 07:43:26;;;;;;;30.73;23.83;;;;;;;-3.35;100.00;101131.78;5097511;28;20031;-69
2023/12/02 07:45:52;;;;;;;9.02;6.20;;;;;;;-3.28;100.00;101136.19;5097314;28;20032;-69
2023/12/02 07:48:18;;;;;;;10.68;5.68;;;;;;;-3.24;100.00;101134.50;5093068;28;20055;-68
2023/12/02 07:50:43;;;;;;;29.27;22.50;;;;;;;-3.34;100.00;101141.34;5092330;27;20592;-68
2023/12/02 07:53:08;;;;;;;29.88;22.63;;;;;;;-3.35;100.00;101134.38;5092641;28;20035;-68
2023/12/02 07:55:34;;;;;;;30.02;23.38;;;;;;;-3.35;100.00;101135.25;5094615;28;20036;-69
2023/12/02 07:57:59;;;;;;;32.45;24.80;;;;;;;-3.25;100.00;101159.66;5089899;28;20020;-69
2023/12/02 08:00:25;;;;;;;32.25;24.20;;;;;;;-3.30;100.00;101157.03;5096643;28;20059;-69
2023/12/02 08:02:50;;;;;;;32.10;23.33;;;;;;;-3.26;100.00;101156.19;5085523;27;20020;-69
2023/12/02 08:05:15;;;;;;;30.33;22.85;;;;;;;-3.25;100.00;101151.84;5090844;28;20055;-68
2023/12/02 08:07:41;;;;;;;30.05;23.15;;;;;;;-3.20;100.00;101155.38;5088488;28;20023;-69
2023/12/02 08:10:07;;;;;;;30.50;23.20;;;;;;;-3.18;100.00;101165.78;5092996;28;20128;-68
2023/12/02 08:12:33;;;;;;;30.88;23.30;;;;;;;-3.16;100.00;101171.91;5089994;28;20521;-69
2023/12/02 08:14:58;;;;;;;31.23;23.83;;;;;;;-3.16;100.00;101164.09;5086297;28;20031;-69
2023/12/02 08:17:23;;;;;;;30.10;22.73;;;;;;;-3.13;100.00;101174.56;5093820;28;20390;-69
2023/12/02 08:19:48;;;;;;;32.95;23.83;;;;;;;-3.13;100.00;101159.81;5090341;28;20249;-69
2023/12/02 08:22:14;;;;;;;31.83;23.92;;;;;;;-3.09;100.00;101166.78;5093202;28;20035;-70
2023/12/02 08:24:42;;;;;;;34.90;24.42;;;;;;;-3.13;100.00;101161.53;5097999;28;20257;-70
2023/12/02 08:27:09;;;;;;;31.65;23.88;;;;;;;-3.14;100.00;101176.25;5096757;28;20042;-69
2023/12/02 08:29:34;;;;;;;34.33;24.70;;;;;;;-3.11;100.00;101167.63;5090337;28;20154;-68
2023/12/02 08:31:59;;;;;;;33.88;25.88;;;;;;;-3.14;100.00;101173.66;5091793;28;20549;-70
2023/12/02 08:34:25;;;;;;;31.40;23.88;;;;;;;-3.10;100.00;101180.63;5086969;28;20050;-69
2023/12/02 08:36:50;;;;;;;32.40;22.63;;;;;;;-3.08;100.00;101185.88;5089427;28;20035;-69
2023/12/02 08:39:17;;;;;;;32.65;23.42;;;;;;;-3.05;100.00;101180.72;5087799;27;20024;-69
2023/12/02 08:41:42;;;;;;;31.33;24.27;;;;;;;-3.02;100.00;101186.78;5098802;28;20105;-69
2023/12/02 08:44:08;;;;;;;30.60;23.42;;;;;;;-3.02;100.00;101189.41;5098108;27;20032;-69
2023/12/02 08:46:33;;;;;;;29.58;22.95;;;;;;;-2.98;100.00;101197.25;5098325;28;20470;-69
2023/12/02 08:48:58;;;;;;;32.03;24.02;;;;;;;-2.88;100.00;101201.72;5095900;28;20026;-69
2023/12/02 08:51:23;;;;;;;32.33;24.15;;;;;;;-2.81;100.00;101206.09;5089009;28;20040;-68
2023/12/02 08:53:55;;;;;;;31.25;23.73;;;;;;;-2.71;100.00;101212.28;5086340;28;20023;-68
2023/12/02 08:56:21;;;;;;;31.58;23.75;;;;;;;-2.64;100.00;101216.69;5093559;28;20485;-68
2023/12/02 08:58:51;;;;;;;31.92;23.88;;;;;;;-2.60;100.00;101224.53;5093428;28;20035;-69
2023/12/02 09:01:16;;;;;;;42.38;37.97;;;;;;;-2.55;100.00;101228.06;5089241;28;20035;-68
2023/12/02 09:03:42;;;;;;;58.15;52.45;;;;;;;-2.53;100.00;101228.94;5090024;28;20059;-68
2023/12/02 09:06:08;;;;;;;33.50;29.13;;;;;;;-2.49;100.00;101224.63;5088596;27;20113;-69
2023/12/02 09:08:33;;;;;;;32.58;26.25;;;;;;;-2.47;100.00;101233.34;5097444;28;20088;-68
2023/12/02 09:10:59;;;;;;;29.88;22.88;;;;;;;-2.47;100.00;101227.25;5092374;28;20055;-68
2023/12/02 09:13:36;;;;;;;30.80;23.45;;;;;;;-2.39;100.00;101230.78;5090988;28;20070;-69
2023/12/02 09:16:01;;;;;;;32.08;24.33;;;;;;;-2.39;100.00;101231.66;5092109;28;20107;-69
2023/12/02 09:18:32;;;;;;;36.10;24.52;;;;;;;-2.34;100.00;101231.69;5089838;28;20465;-68
2023/12/02 09:20:58;;;;;;;33.60;25.60;;;;;;;-2.31;100.00;101235.19;5095360;28;20027;-69
2023/12/02 09:23:23;;;;;;;33.67;24.75;;;;;;;-2.29;100.00;101235.25;5096993;28;20034;-70
2023/12/02 09:25:50;;;;;;;34.75;24.27;;;;;;;-2.24;100.00;101224.84;5094527;28;20058;-69
2023/12/02 09:28:18;;;;;;;32.25;23.95;;;;;;;-2.18;100.00;101230.97;5089775;28;20234;-69
2023/12/02 09:30:50;;;;;;;31.33;23.48;;;;;;;-2.02;100.00;101232.81;5089622;28;20115;-69
2023/12/02 09:33:16;;;;;;;34.22;24.27;;;;;;;-2.03;100.00;101238.03;5089497;28;20019;-70
2023/12/02 09:35:42;;;;;;;33.28;24.65;;;;;;;-2.06;100.00;101240.59;5101469;28;20081;-68
2023/12/02 09:38:08;;;;;;;32.83;24.38;;;;;;;-2.07;100.00;101233.66;5100980;28;20478;-69
2023/12/02 09:40:36;;;;;;;31.85;23.52;;;;;;;-2.19;100.00;101242.25;5088167;28;20031;-69
2023/12/02 09:43:07;;;;;;;30.98;24.23;;;;;;;-2.30;100.00;101249.13;5094830;28;20063;-69
2023/12/02 09:45:48;;;;;;;30.42;23.25;;;;;;;-2.45;100.00;101256.81;5085276;28;20042;-68
2023/12/02 09:48:22;;;;;;;32.17;23.40;;;;;;;-2.53;100.00;101255.00;5098632;28;20019;-69
2023/12/02 09:50:48;;;;;;;;;;;;;;;-2.44;100.00;101261.16;5092391;28;20056;-69
2023/12/02 09:53:41;;;;;;;31.73;24.75;;;;;;;-2.68;100.00;101262.66;5089860;28;19927;-69
2023/12/02 09:56:20;;;;;;;18.95;9.13;;;;;;;-2.58;100.00;101264.53;5033907;28;20029;-69
2023/12/02 09:58:46;;;;;;;33.08;24.50;;;;;;;-2.75;100.00;101258.28;5028124;28;20091;-71
2023/12/02 10:01:33;;;;;;;35.50;25.27;;;;;;;-2.75;100.00;101263.50;5032905;28;20080;-69
2023/12/02 10:04:27;;;;;;;33.47;24.00;;;;;;;-2.71;100.00;101261.78;5034655;28;20033;-69
2023/12/02 10:07:07;;;;;;;33.67;24.48;;;;;;;-2.73;100.00;101258.28;5025985;28;20403;-69
2023/12/02 10:09:44;;;;;;;31.85;23.58;;;;;;;-2.77;100.00;101258.25;5031819;28;20416;-69
2023/12/02 10:12:34;;;;;;;33.05;24.00;;;;;;;-2.73;100.00;101255.69;5031359;28;20377;-69
2023/12/02 10:15:05;;;;;;;33.30;24.85;;;;;;;-2.72;100.00;101253.06;5036993;28;20049;-69
2023/12/02 10:17:37;;;;;;;35.92;25.00;;;;;;;-2.74;100.00;101247.00;5037243;28;20039;-69
2023/12/02 10:20:11;;;;;;;35.53;25.60;;;;;;;-2.74;100.00;101249.59;5034940;28;20108;-69
2023/12/02 10:22:45;;;;;;;35.08;25.88;;;;;;;-2.72;100.00;101244.41;5021926;28;20033;-69
2023/12/02 10:25:23;;;;;;;35.05;26.10;;;;;;;-2.72;100.00;101245.25;5039334;28;20102;-69
2023/12/02 10:27:49;;;;;;;33.22;24.20;;;;;;;-2.69;100.00;101255.72;5031710;28;20037;-69
2023/12/02 10:30:16;;;;;;;33.58;25.13;;;;;;;-2.66;100.00;101255.75;5025494;28;20742;-69
2023/12/02 10:32:53;;;;;;;32.53;24.83;;;;;;;-2.56;100.00;101260.19;5051280;28;20514;-69
2023/12/02 10:35:28;;;;;;;33.58;24.77;;;;;;;-2.43;100.00;101252.47;5095551;28;20028;-69
2023/12/02 10:38:13;;;;;;;32.10;24.23;;;;;;;-2.29;100.00;101259.56;5085849;28;20446;-69
2023/12/02 10:40:45;;;;;;;19.70;11.85;;;;;;;-2.08;100.00;101260.59;5091564;28;20274;-70
2023/12/02 10:43:30;;;;;;;31.45;23.77;;;;;;;-1.95;100.00;101264.19;5098073;28;20058;-70
2023/12/02 10:45:55;;;;;;;10.40;6.57;;;;;;;-1.72;100.00;101261.69;5097423;28;20498;-71
2023/12/02 10:48:21;;;;;;;31.77;24.48;;;;;;;-1.54;100.00;101257.47;5086275;28;20040;-70
2023/12/02 10:50:50;;;;;;;31.35;24.17;;;;;;;-1.43;100.00;101254.03;5100488;28;20036;-72
2023/12/02 10:53:20;;;;;;;32.35;23.98;;;;;;;-1.42;100.00;101251.44;5087870;28;20028;-70
2023/12/02 10:55:53;;;;;;;32.10;24.02;;;;;;;-1.39;100.00;101267.09;5086293;27;20024;-71
2023/12/02 10:58:20;;;;;;;33.85;25.02;;;;;;;-1.45;100.00;101256.66;5093316;28;20393;-70
2023/12/02 11:00:50;;;;;;;32.72;24.25;;;;;;;-1.51;100.00;101261.81;5098058;28;20497;-70